createdAt,value
2022-08-05T00:02:27.169Z,98503.34
2022-08-05T00:04:56.065Z,98510.97
2022-08-05T00:07:58.617Z,98502.00
2022-08-05T00:10:10.684Z,98503.72
2022-08-05T00:12:56.101Z,98506.09
2022-08-05T00:15:58.207Z,98507.06
2022-08-05T00:18:10.587Z,98476.91
2022-08-05T00:20:48.954Z,98506.72
2022-08-05T00:23:15.847Z,98504.50
2022-08-05T00:25:45.458Z,98492.81
2022-08-05T00:28:13.224Z,98497.53
2022-08-05T00:30:41.246Z,98500.84
2022-08-05T00:34:42.280Z,98512.06
2022-08-05T00:36:16.607Z,98507.16
2022-08-05T00:38:45.223Z,98494.28
2022-08-05T00:41:12.834Z,98493.72
2022-08-05T00:43:47.357Z,98504.03
2022-08-05T00:46:16.633Z,98476.94
2022-08-05T00:48:50.903Z,98500.84
2022-08-05T00:51:50.382Z,98500.84
2022-08-05T00:54:06.109Z,98503.84
2022-08-05T00:56:32.767Z,98490.66
2022-08-05T00:59:00.338Z,98494.38
2022-08-05T01:01:42.699Z,98494.22
2022-08-05T01:04:15.707Z,98480.16
2022-08-05T01:06:43.693Z,98489.59
2022-08-05T01:09:14.769Z,98464.69
2022-08-05T01:11:44.308Z,98470.63
2022-08-05T01:14:42.800Z,98496.00
2022-08-05T01:17:13.557Z,98480.91
2022-08-05T01:20:00.754Z,98479.22
2022-08-05T01:22:57.478Z,98485.06
2022-08-05T01:25:53.218Z,98484.34
2022-08-05T01:28:31.460Z,98484.50
2022-08-05T01:31:21.537Z,98492.75
2022-08-05T01:34:04.742Z,98491.47
2022-08-05T01:36:36.280Z,98490.16
2022-08-05T01:39:10.913Z,98479.81
2022-08-05T01:41:38.149Z,98496.03
2022-08-05T01:44:13.116Z,98496.28
2022-08-05T01:46:46.644Z,98501.50
2022-08-05T01:49:24.356Z,98493.31
2022-08-05T01:51:58.437Z,98499.91
2022-08-05T01:54:30.456Z,98489.88
2022-08-05T01:58:11.257Z,98492.47
2022-08-05T01:59:47.529Z,98490.59
2022-08-05T02:02:16.047Z,98493.56
2022-08-05T02:04:49.549Z,98495.44
2022-08-05T02:07:22.003Z,98501.28
2022-08-05T02:09:50.138Z,98491.16
2022-08-05T02:12:20.656Z,98503.13
2022-08-05T02:14:52.555Z,98497.50
2022-08-05T02:18:14.524Z,98496.34
2022-08-05T02:20:22.177Z,98496.66
2022-08-05T02:22:56.758Z,98497.13
2022-08-05T02:25:33.384Z,98464.47
2022-08-05T02:28:15.583Z,98483.31
2022-08-05T02:30:58.714Z,98486.84
2022-08-05T02:33:36.070Z,98491.94
2022-08-05T02:36:09.404Z,98485.78
2022-08-05T02:38:37.747Z,98489.03
2022-08-05T02:41:17.048Z,98486.06
2022-08-05T02:44:02.964Z,98484.16
2022-08-05T02:46:35.620Z,98481.22
2022-08-05T02:49:13.418Z,98485.63
2022-08-05T02:52:01.142Z,98482.94
2022-08-05T02:54:35.959Z,98475.91
2022-08-05T02:57:10.281Z,98485.53
2022-08-05T02:59:54.247Z,98484.00
2022-08-05T03:02:24.547Z,98478.47
2022-08-05T03:04:57.446Z,98474.75
2022-08-05T03:08:00.979Z,98466.28
2022-08-05T03:10:15.638Z,98471.06
2022-08-05T03:12:51.939Z,98471.81
2022-08-05T03:15:23.496Z,98469.97
2022-08-05T03:17:50.412Z,98467.88
2022-08-05T03:20:21.069Z,98466.09
2022-08-05T03:22:49.905Z,98466.81
2022-08-05T03:26:03.922Z,98464.25
2022-08-05T03:28:08.427Z,98464.25
2022-08-05T03:30:36.695Z,98459.19
2022-08-05T03:33:06.357Z,98451.47
2022-08-05T03:35:40.995Z,98439.97
2022-08-05T03:38:11.017Z,98455.53
2022-08-05T03:40:47.237Z,98456.25
2022-08-05T03:43:59.106Z,98452.56
2022-08-05T03:46:04.336Z,98447.63
2022-08-05T03:48:35.399Z,98457.78
2022-08-05T03:52:48.707Z,98459.25
2022-08-05T03:55:53.361Z,98454.34
2022-08-05T03:57:16.728Z,98454.00
2022-08-05T04:00:10.050Z,98459.25
2022-08-05T04:02:52.019Z,98456.84
2022-08-05T04:05:27.882Z,98446.38
2022-08-05T04:08:01.920Z,98450.06
2022-08-05T04:10:37.110Z,98460.47
2022-08-05T04:13:06.723Z,98459.03
2022-08-05T04:15:36.199Z,98455.31
2022-08-05T04:18:06.851Z,98462.78
2022-08-05T04:20:34.178Z,98449.00
2022-08-05T04:23:00.812Z,98447.59
2022-08-05T04:25:57.805Z,98454.16
2022-08-05T04:28:14.369Z,98448.06
2022-08-05T04:30:41.734Z,98452.38
2022-08-05T04:33:09.792Z,98451.91
2022-08-05T04:36:16.375Z,98454.03
2022-08-05T04:38:23.540Z,98452.38
2022-08-05T04:41:07.345Z,98452.75
2022-08-05T04:43:36.336Z,98449.41
2022-08-05T04:46:05.041Z,98458.25
2022-08-05T04:48:32.240Z,98449.13
2022-08-05T04:51:03.097Z,98454.47
2022-08-05T04:53:33.653Z,98446.88
2022-08-05T04:56:33.408Z,98459.97
2022-08-05T04:58:49.691Z,98448.66
2022-08-05T05:01:33.478Z,98464.75
2022-08-05T05:04:03.127Z,98458.72
2022-08-05T05:06:39.538Z,98443.84
2022-08-05T05:09:14.242Z,98451.47
2022-08-05T05:11:54.570Z,98452.19
2022-08-05T05:14:28.003Z,98442.41
2022-08-05T05:17:03.357Z,98450.72
2022-08-05T05:19:36.976Z,98447.03
2022-08-05T05:22:22.920Z,98455.81
2022-08-05T05:24:56.886Z,98449.41
2022-08-05T05:27:45.068Z,98444.16
2022-08-05T05:30:30.927Z,98433.66
2022-08-05T05:33:13.879Z,98438.88
2022-08-05T05:35:45.798Z,98459.66
2022-08-05T05:38:13.821Z,98445.97
2022-08-05T05:40:49.678Z,98446.56
2022-08-05T05:43:27.544Z,98440.88
2022-08-05T05:46:10.619Z,98444.94
2022-08-05T05:48:37.453Z,98444.19
2022-08-05T05:51:15.070Z,98436.97
2022-08-05T05:53:46.113Z,98438.09
2022-08-05T05:56:25.967Z,98429.75
2022-08-05T05:59:03.284Z,98422.94
2022-08-05T06:01:36.900Z,98424.00
2022-08-05T06:04:05.931Z,98428.00
2022-08-05T06:06:34.882Z,98424.69
2022-08-05T06:09:07.650Z,98425.09
2022-08-05T06:11:39.359Z,98422.38
2022-08-05T06:14:06.323Z,98423.03
2022-08-05T06:16:37.195Z,98423.78
2022-08-05T06:19:07.210Z,98426.81
2022-08-05T06:21:37.581Z,98424.81
2022-08-05T06:24:11.395Z,98413.91
2022-08-05T06:26:51.241Z,98402.78
2022-08-05T06:29:42.932Z,98416.06
2022-08-05T06:32:21.065Z,98409.09
2022-08-05T06:34:53.408Z,98411.00
2022-08-05T06:37:56.424Z,98417.19
2022-08-05T06:40:10.049Z,98404.91
2022-08-05T06:42:37.079Z,98402.50
2022-08-05T06:45:08.468Z,98409.13
2022-08-05T06:48:46.922Z,98413.56
2022-08-05T06:50:21.922Z,98410.88
2022-08-05T06:52:58.436Z,98399.16
2022-08-05T06:55:25.735Z,98416.94
2022-08-05T06:58:03.812Z,98414.34
2022-08-05T07:00:41.127Z,98413.97
2022-08-05T07:03:09.830Z,98412.44
2022-08-05T07:05:37.835Z,98410.59
2022-08-05T07:08:10.893Z,98419.31
2022-08-05T07:10:38.182Z,98412.88
2022-08-05T07:13:54.297Z,98412.56
2022-08-05T07:17:58.539Z,98421.09
2022-08-05T07:19:44.221Z,98421.47
2022-08-05T07:22:07.204Z,98411.53
2022-08-05T07:24:35.161Z,98420.78
2022-08-05T07:27:10.691Z,98421.44
2022-08-05T07:30:23.826Z,98411.69
2022-08-05T07:32:26.104Z,98402.69
2022-08-05T07:34:57.951Z,98410.88
2022-08-05T07:37:29.211Z,98412.94
2022-08-05T07:40:26.223Z,98403.66
2022-08-05T07:42:49.635Z,98405.13
2022-08-05T07:45:16.372Z,98387.91
2022-08-05T07:47:58.011Z,98405.50
2022-08-05T07:50:32.399Z,98408.94
2022-08-05T07:52:59.049Z,98404.31
2022-08-05T07:55:44.259Z,98402.47
2022-08-05T07:58:17.668Z,98408.38
2022-08-05T08:00:59.656Z,98409.50
2022-08-05T08:03:44.050Z,98409.78
2022-08-05T08:06:11.504Z,98408.25
2022-08-05T08:08:38.190Z,98408.03
2022-08-05T08:11:04.964Z,98406.59
2022-08-05T08:13:42.987Z,98402.09
2022-08-05T08:16:34.875Z,98408.03
2022-08-05T08:19:03.029Z,98398.63
2022-08-05T08:21:29.659Z,98394.97
2022-08-05T08:24:02.892Z,98401.78
2022-08-05T08:26:31.964Z,98385.41
2022-08-05T08:29:45.284Z,98392.25
2022-08-05T08:31:49.931Z,98402.38
2022-08-05T08:34:30.389Z,98404.66
2022-08-05T08:37:04.688Z,98395.59
2022-08-05T08:39:31.644Z,98369.22
2022-08-05T08:42:10.376Z,98392.72
2022-08-05T08:44:54.958Z,98397.00
2022-08-05T08:48:06.618Z,98387.63
2022-08-05T08:51:04.161Z,98391.75
2022-08-05T08:53:18.620Z,98403.84
2022-08-05T08:56:03.175Z,98392.78
2022-08-05T08:58:43.604Z,98379.34
2022-08-05T09:01:17.144Z,98393.09
2022-08-05T09:03:55.060Z,98386.22
2022-08-05T09:06:24.196Z,98396.47
2022-08-05T09:08:55.468Z,98390.09
2022-08-05T09:11:51.504Z,98382.00
2022-08-05T09:14:57.459Z,98386.53
2022-08-05T09:16:57.979Z,98387.75
2022-08-05T09:19:27.977Z,98386.13
2022-08-05T09:22:28.835Z,98384.72
2022-08-05T09:25:01.383Z,98379.38
2022-08-05T09:28:03.867Z,98369.34
2022-08-05T09:30:23.434Z,98374.91
2022-08-05T09:32:51.609Z,98368.78
2022-08-05T09:35:26.288Z,98361.56
2022-08-05T09:38:12.221Z,98368.41
2022-08-05T09:40:51.738Z,98355.75
2022-08-05T09:43:40.761Z,98359.41
2022-08-05T09:46:28.006Z,98366.66
2022-08-05T09:49:07.990Z,98369.22
2022-08-05T09:51:42.601Z,98354.44
2022-08-05T09:54:10.219Z,98355.22
2022-08-05T09:56:38.524Z,98353.91
2022-08-05T09:59:06.386Z,98354.75
2022-08-05T10:01:36.322Z,98349.09
2022-08-05T10:04:14.049Z,98353.28
2022-08-05T10:06:58.712Z,98351.00
2022-08-05T10:09:28.034Z,98339.41
2022-08-05T10:12:30.088Z,98345.31
2022-08-05T10:14:54.375Z,98336.63
2022-08-05T10:17:37.249Z,98340.13
2022-08-05T10:20:10.851Z,98338.41
2022-08-05T10:22:48.516Z,98337.00
2022-08-05T10:25:17.852Z,98318.78
2022-08-05T10:28:16.818Z,98323.22
2022-08-05T10:31:20.240Z,98321.38
2022-08-05T10:33:28.969Z,98320.19
2022-08-05T10:35:59.693Z,98317.69
2022-08-05T10:38:29.298Z,98312.69
2022-08-05T10:41:23.581Z,98320.41
2022-08-05T10:44:07.145Z,98313.56
2022-08-05T10:46:56.018Z,98314.34
2022-08-05T10:49:26.732Z,98311.22
2022-08-05T10:52:03.218Z,98316.97
2022-08-05T10:55:02.210Z,98316.84
2022-08-05T10:57:32.348Z,98300.84
2022-08-05T11:00:20.891Z,98303.69
2022-08-05T11:03:24.676Z,98295.34
2022-08-05T11:06:16.155Z,98289.81
2022-08-05T11:09:17.436Z,98285.25
2022-08-05T11:11:53.566Z,98297.53
2022-08-05T11:14:57.397Z,98306.38
2022-08-05T11:18:07.308Z,98311.88
2022-08-05T11:20:44.285Z,98298.03
2022-08-05T11:23:26.134Z,98300.75
2022-08-05T11:26:28.151Z,98294.31
2022-08-05T11:29:06.701Z,98297.84
2022-08-05T11:31:54.532Z,98295.84
2022-08-05T11:34:52.242Z,98292.00
2022-08-05T11:38:29.278Z,98294.50
2022-08-05T11:41:15.444Z,98293.34
2022-08-05T11:44:05.994Z,98294.78
2022-08-05T11:47:09.361Z,98293.03
2022-08-05T11:49:27.762Z,98289.59
2022-08-05T11:51:55.103Z,98285.19
2022-08-05T11:54:33.861Z,98284.56
2022-08-05T11:57:08.459Z,98290.00
2022-08-05T11:59:50.631Z,98282.63
2022-08-05T12:02:23.720Z,98279.47
2022-08-05T12:04:59.511Z,98284.09
2022-08-05T12:08:03.553Z,98288.03
2022-08-05T12:10:18.314Z,98287.25
2022-08-05T12:12:58.477Z,98278.81
2022-08-05T12:15:35.852Z,98277.00
2022-08-05T12:18:10.986Z,98271.09
2022-08-05T12:20:39.350Z,98275.63
2022-08-05T12:23:13.501Z,98278.56
2022-08-05T12:25:53.822Z,98276.25
2022-08-05T12:28:37.871Z,98268.63
2022-08-05T12:31:04.856Z,98276.16
2022-08-05T12:33:36.360Z,98273.91
2022-08-05T12:36:08.567Z,98266.50
2022-08-05T12:38:41.094Z,98278.13
2022-08-05T12:41:13.132Z,98282.16
2022-08-05T12:44:01.664Z,98273.91
2022-08-05T12:46:31.397Z,98273.47
2022-08-05T12:49:00.510Z,98284.00
2022-08-05T12:52:12.922Z,98269.97
2022-08-05T12:54:23.636Z,98269.38
2022-08-05T12:57:01.601Z,98259.19
2022-08-05T13:01:58.403Z,98248.50
2022-08-05T13:02:37.325Z,98256.31
2022-08-05T13:05:07.399Z,98263.59
2022-08-05T13:10:21.855Z,98243.19
2022-08-05T13:12:51.146Z,98253.94
2022-08-05T13:15:35.959Z,98238.50
2022-08-05T13:18:08.537Z,98237.22
2022-08-05T13:20:40.535Z,98226.53
2022-08-05T13:23:07.645Z,98241.09
2022-08-05T13:25:52.816Z,98234.09
2022-08-05T13:28:22.296Z,98225.88
2022-08-05T13:30:48.916Z,98225.97
2022-08-05T13:34:21.711Z,98223.63
2022-08-05T13:36:05.095Z,98228.59
2022-08-05T13:38:36.055Z,98201.25
2022-08-05T13:41:05.890Z,98202.56
2022-08-05T13:43:44.304Z,98210.94
2022-08-05T13:46:13.274Z,98200.97
2022-08-05T13:48:58.677Z,98202.66
2022-08-05T13:51:36.403Z,98205.00
2022-08-05T13:54:12.442Z,98206.94
2022-08-05T13:56:45.190Z,98205.25
2022-08-05T13:59:21.117Z,98207.44
2022-08-05T14:01:58.262Z,98190.88
2022-08-05T14:05:04.120Z,98191.13
2022-08-05T14:08:00.348Z,98173.59
2022-08-05T14:10:28.602Z,98188.06
2022-08-05T14:12:57.096Z,98188.22
2022-08-05T14:16:04.403Z,98192.66
2022-08-05T14:18:15.152Z,98184.88
2022-08-05T14:20:46.941Z,98185.19
2022-08-05T14:23:25.145Z,98175.28
2022-08-05T14:25:58.910Z,98172.81
2022-08-05T14:28:28.546Z,98180.63
2022-08-05T14:30:57.036Z,98168.59
2022-08-05T14:33:24.102Z,98171.41
2022-08-05T14:35:54.510Z,98172.69
2022-08-05T14:38:32.558Z,98164.50
2022-08-05T14:41:06.348Z,98178.06
2022-08-05T14:44:01.510Z,98180.69
2022-08-05T14:46:28.529Z,98166.72
2022-08-05T14:48:57.953Z,98169.56
2022-08-05T14:51:25.533Z,98167.66
2022-08-05T14:54:28.817Z,98166.81
2022-08-05T14:56:46.785Z,98162.56
2022-08-05T14:59:14.430Z,98158.72
2022-08-05T15:01:48.624Z,98147.53
2022-08-05T15:04:16.541Z,98149.63
2022-08-05T15:06:49.389Z,98152.72
2022-08-05T15:09:50.665Z,98152.13
2022-08-05T15:12:05.837Z,98140.00
2022-08-05T15:14:35.659Z,98154.78
2022-08-05T15:17:45.095Z,98152.56
2022-08-05T15:19:56.476Z,98149.41
2022-08-05T15:22:26.962Z,98130.44
2022-08-05T15:24:55.540Z,98152.53
2022-08-05T15:27:22.268Z,98150.94
2022-08-05T15:29:52.878Z,98147.81
2022-08-05T15:32:28.676Z,98141.59
2022-08-05T15:34:56.196Z,98132.06
2022-08-05T15:38:32.532Z,98136.09
2022-08-05T15:41:04.036Z,98129.84
2022-08-05T15:43:09.287Z,98132.50
2022-08-05T15:45:43.842Z,98120.22
2022-08-05T15:48:13.991Z,98125.38
2022-08-05T15:50:41.559Z,98128.66
2022-08-05T15:53:12.787Z,98114.19
2022-08-05T15:56:01.238Z,98118.47
2022-08-05T15:58:28.504Z,98122.31
2022-08-05T16:01:11.527Z,98096.59
2022-08-05T16:03:42.982Z,98117.94
2022-08-05T16:06:11.469Z,98120.34
2022-08-05T16:08:38.989Z,98131.47
2022-08-05T16:11:07.280Z,98123.50
2022-08-05T16:13:35.158Z,98129.00
2022-08-05T16:16:05.399Z,98131.06
2022-08-05T16:18:35.242Z,98127.00
2022-08-05T16:21:18.790Z,98130.56
2022-08-05T16:23:53.121Z,98130.19
2022-08-05T16:26:26.586Z,98137.16
2022-08-05T16:28:54.389Z,98132.50
2022-08-05T16:31:21.554Z,98126.66
2022-08-05T16:33:49.091Z,98126.78
2022-08-05T16:36:20.347Z,98120.72
2022-08-05T16:38:54.427Z,98130.00
2022-08-05T16:42:27.673Z,98129.53
2022-08-05T16:44:14.429Z,98137.50
2022-08-05T16:46:55.470Z,98133.69
2022-08-05T16:49:23.505Z,98128.06
2022-08-05T16:51:51.373Z,98124.34
2022-08-05T16:54:27.530Z,98117.91
2022-08-05T16:56:58.591Z,98113.94
2022-08-05T16:59:25.240Z,98118.25
2022-08-05T17:01:56.091Z,98120.53
2022-08-05T17:04:27.831Z,98125.41
2022-08-05T17:07:01.878Z,98114.72
2022-08-05T17:09:30.579Z,98130.47
2022-08-05T17:12:05.894Z,98128.16
2022-08-05T17:14:38.089Z,98123.38
2022-08-05T17:17:09.428Z,98134.59
2022-08-05T17:19:43.853Z,98131.00
2022-08-05T17:22:17.803Z,98135.25
2022-08-05T17:24:57.807Z,98145.78
2022-08-05T17:27:33.827Z,98141.00
2022-08-05T17:30:02.442Z,98144.56
2022-08-05T17:32:29.867Z,98137.78
2022-08-05T17:34:58.258Z,98149.72
2022-08-05T17:37:35.921Z,98142.88
2022-08-05T17:40:14.491Z,98146.97
2022-08-05T17:42:49.765Z,98142.06
2022-08-05T17:45:21.087Z,98150.59
2022-08-05T17:47:53.936Z,98147.81
2022-08-05T17:50:29.444Z,98150.19
2022-08-05T17:53:02.305Z,98147.72
2022-08-05T17:55:38.255Z,98151.16
2022-08-05T17:58:09.368Z,98148.72
2022-08-05T18:00:37.011Z,98149.00
2022-08-05T18:03:11.644Z,98154.97
2022-08-05T18:05:53.668Z,98153.72
2022-08-05T18:08:20.995Z,98150.16
2022-08-05T18:10:47.693Z,98148.94
2022-08-05T18:13:15.262Z,98158.06
2022-08-05T18:15:42.595Z,98155.94
2022-08-05T18:18:11.596Z,98144.66
2022-08-05T18:20:38.903Z,98146.13
2022-08-05T18:23:11.449Z,98148.88
2022-08-05T18:25:45.230Z,98150.56
2022-08-05T18:28:17.541Z,98142.59
2022-08-05T18:30:50.857Z,98150.59
2022-08-05T18:33:23.130Z,98159.00
2022-08-05T18:36:03.868Z,98162.09
2022-08-05T18:38:35.823Z,98165.88
2022-08-05T18:41:57.225Z,98136.69
2022-08-05T18:43:50.093Z,98167.53
2022-08-05T18:46:20.306Z,98158.91
2022-08-05T18:48:52.100Z,98163.91
2022-08-05T18:52:04.189Z,98173.94
2022-08-05T18:54:31.719Z,98175.59
2022-08-05T18:57:01.949Z,98181.00
2022-08-05T18:59:43.707Z,98178.47
2022-08-05T19:02:27.545Z,98177.63
2022-08-05T19:05:03.174Z,98170.44
2022-08-05T19:07:45.974Z,98175.03
2022-08-05T19:10:13.174Z,98186.66
2022-08-05T19:12:40.302Z,98181.53
2022-08-05T19:15:25.200Z,98181.13
2022-08-05T19:17:59.113Z,98190.25
2022-08-05T19:20:37.055Z,98180.63
2022-08-05T19:23:08.525Z,98191.50
2022-08-05T19:26:02.015Z,98185.66
2022-08-05T19:28:30.392Z,98190.22
2022-08-05T19:30:57.007Z,98188.94
2022-08-05T19:33:35.846Z,98192.06
2022-08-05T19:36:06.475Z,98200.38
2022-08-05T19:38:35.830Z,98191.56
2022-08-05T19:41:07.381Z,98185.72
2022-08-05T19:44:06.019Z,98190.78
2022-08-05T19:46:29.460Z,98189.91
2022-08-05T19:49:01.120Z,98188.13
2022-08-05T19:52:04.663Z,98186.72
2022-08-05T19:54:28.409Z,98182.22
2022-08-05T19:56:59.315Z,98188.31
2022-08-05T20:00:01.711Z,98180.50
2022-08-05T20:02:14.492Z,98182.94
2022-08-05T20:04:43.238Z,98183.94
2022-08-05T20:07:13.645Z,98187.19
2022-08-05T20:09:54.079Z,98191.81
2022-08-05T20:12:22.665Z,98167.97
2022-08-05T20:14:52.239Z,98179.56
2022-08-05T20:17:23.324Z,98190.44
2022-08-05T20:19:57.028Z,98195.72
2022-08-05T20:22:26.734Z,98196.50
2022-08-05T20:24:54.771Z,98197.91
2022-08-05T20:27:26.837Z,98204.31
2022-08-05T20:29:58.547Z,98198.78
2022-08-05T20:32:26.242Z,98204.19
2022-08-05T20:34:53.098Z,98200.38
2022-08-05T20:38:06.705Z,98193.06
2022-08-05T20:40:07.256Z,98198.25
2022-08-05T20:42:34.581Z,98172.44
2022-08-05T20:45:02.310Z,98188.03
2022-08-05T20:47:32.372Z,98206.84
2022-08-05T20:49:59.504Z,98194.22
2022-08-05T20:52:26.531Z,98210.13
2022-08-05T20:55:15.810Z,98226.88
2022-08-05T20:57:43.730Z,98225.72
2022-08-05T21:00:36.336Z,98226.78
2022-08-05T21:03:07.014Z,98222.69
2022-08-05T21:05:47.988Z,98217.25
2022-08-05T21:08:20.987Z,98218.66
2022-08-05T21:10:53.616Z,98222.47
2022-08-05T21:13:37.891Z,98226.97
2022-08-05T21:16:07.200Z,98219.00
2022-08-05T21:18:34.330Z,98233.16
2022-08-05T21:21:02.417Z,98230.81
2022-08-05T21:23:29.005Z,98230.81
2022-08-05T21:26:04.247Z,98225.00
2022-08-05T21:28:50.594Z,98239.06
2022-08-05T21:31:17.401Z,98233.88
2022-08-05T21:33:47.713Z,98240.47
2022-08-05T21:36:27.577Z,98237.91
2022-08-05T21:38:56.946Z,98235.75
2022-08-05T21:41:26.018Z,98239.03
2022-08-05T21:44:03.605Z,98233.78
2022-08-05T21:46:34.931Z,98238.84
2022-08-05T21:49:08.082Z,98237.38
2022-08-05T21:52:28.153Z,98246.19
2022-08-05T21:54:40.366Z,98235.00
2022-08-05T21:57:31.200Z,98241.00
2022-08-05T22:00:05.747Z,98234.13
2022-08-05T22:02:33.222Z,98243.13
2022-08-05T22:05:00.535Z,98241.81
2022-08-05T22:07:40.420Z,98252.00
2022-08-05T22:10:15.784Z,98237.00
2022-08-05T22:12:45.042Z,98252.22
2022-08-05T22:16:00.888Z,98245.31
2022-08-05T22:18:06.212Z,98254.66
2022-08-05T22:20:35.587Z,98251.28
2022-08-05T22:23:24.595Z,98242.19
2022-08-05T22:26:11.867Z,98247.78
2022-08-05T22:28:41.792Z,98235.78
2022-08-05T22:31:08.655Z,98248.31
2022-08-05T22:33:58.439Z,98238.31
2022-08-05T22:36:24.614Z,98233.94
2022-08-05T22:38:53.705Z,98215.56
2022-08-05T22:41:26.378Z,98241.25
2022-08-05T22:44:08.443Z,98238.69
2022-08-05T22:46:39.439Z,98236.53
2022-08-05T22:49:07.319Z,98243.41
2022-08-05T22:52:06.101Z,98233.38
2022-08-05T22:54:35.413Z,98231.56
2022-08-05T22:57:02.870Z,98243.41
2022-08-05T22:59:43.749Z,98233.94
2022-08-05T23:02:13.787Z,98236.19
2022-08-05T23:04:52.070Z,98240.09
2022-08-05T23:07:19.678Z,98232.81
2022-08-05T23:09:57.493Z,98233.50
2022-08-05T23:12:32.988Z,98225.06
2022-08-05T23:15:08.748Z,98230.66
2022-08-05T23:17:37.445Z,98240.47
2022-08-05T23:20:17.505Z,98233.91
2022-08-05T23:22:47.713Z,98230.34
2022-08-05T23:25:51.046Z,98235.44
2022-08-05T23:28:07.047Z,98229.50
2022-08-05T23:30:40.614Z,98238.66
2022-08-05T23:33:19.052Z,98232.56
2022-08-05T23:35:52.671Z,98230.53
2022-08-05T23:38:23.462Z,98228.19
2022-08-05T23:40:52.703Z,98218.38
2022-08-05T23:43:25.066Z,98218.56
2022-08-05T23:46:21.025Z,98226.34
2022-08-05T23:49:00.214Z,98222.41
2022-08-05T23:51:53.612Z,98226.72
2022-08-05T23:54:30.151Z,98225.53
2022-08-05T23:57:03.539Z,98220.78
2022-08-05T23:59:37.770Z,98224.19
